createdAt,value
2023-05-19T00:13:14.452Z,13.15
2023-05-19T00:33:16.190Z,13.38
2023-05-19T00:53:17.881Z,15.00
2023-05-19T01:13:19.584Z,14.85
2023-05-19T01:33:21.353Z,18.42
2023-05-19T01:53:22.966Z,18.58
2023-05-19T02:13:24.661Z,15.52
2023-05-19T02:33:26.320Z,18.52
2023-05-19T02:53:28.022Z,16.63
2023-05-19T03:13:29.755Z,16.00
2023-05-19T03:33:31.605Z,16.85
2023-05-19T03:53:33.409Z,15.65
2023-05-19T04:13:35.270Z,15.60
2023-05-19T04:33:36.977Z,14.65
2023-05-19T04:53:38.938Z,16.38
2023-05-19T05:13:43.025Z,14.60
2023-05-19T05:33:48.397Z,11.45
2023-05-19T05:53:54.169Z,11.30
2023-05-19T06:14:00.139Z,9.75
2023-05-19T06:34:20.633Z,10.68
2023-05-19T06:54:22.537Z,9.90
2023-05-19T07:14:24.524Z,10.02
2023-05-19T07:34:27.091Z,9.55
2023-05-19T07:54:28.848Z,8.90
2023-05-19T08:14:30.645Z,7.57
2023-05-19T08:34:32.307Z,15.10
2023-05-19T08:54:34.003Z,10.80
2023-05-19T09:14:35.713Z,7.38
2023-05-19T09:34:37.580Z,5.72
2023-05-19T09:54:39.972Z,7.43
2023-05-19T10:14:41.813Z,5.40
2023-05-19T10:34:43.505Z,4.57
2023-05-19T10:54:45.290Z,3.90
2023-05-19T11:14:46.953Z,3.75
2023-05-19T11:34:48.715Z,3.20
2023-05-19T11:54:50.461Z,2.88
2023-05-19T12:14:52.104Z,2.60
2023-05-19T12:34:59.869Z,2.40
2023-05-19T12:55:01.662Z,5.60
2023-05-19T13:15:03.354Z,3.45
2023-05-19T13:35:05.160Z,3.53
2023-05-19T13:55:06.908Z,3.40
2023-05-19T14:15:09.144Z,3.03
2023-05-19T14:35:14.382Z,3.15
2023-05-19T14:55:16.032Z,4.00
2023-05-19T15:15:20.790Z,4.90
2023-05-19T15:35:22.428Z,2.75
2023-05-19T15:55:24.053Z,2.60
2023-05-19T16:15:25.953Z,2.60
2023-05-19T16:35:27.516Z,2.28
2023-05-19T16:56:07.102Z,3.13
2023-05-19T17:16:27.216Z,3.72
2023-05-19T17:36:47.536Z,3.17
2023-05-19T17:57:07.781Z,3.55
2023-05-19T18:17:27.900Z,3.47
2023-05-19T18:37:29.594Z,3.70
2023-05-19T18:57:32.152Z,3.88
2023-05-19T19:17:34.021Z,5.75
2023-05-19T19:37:35.785Z,5.20
2023-05-19T19:57:37.482Z,4.95
2023-05-19T20:17:41.111Z,4.95
2023-05-19T20:37:42.696Z,6.10
2023-05-19T20:57:44.405Z,10.77
2023-05-19T21:17:45.958Z,14.25
2023-05-19T21:37:47.653Z,15.85
2023-05-19T21:57:49.321Z,9.85
2023-05-19T22:17:51.056Z,12.07
2023-05-19T22:37:52.709Z,9.27
2023-05-19T22:57:54.330Z,9.48
2023-05-19T23:17:56.073Z,7.53
2023-05-19T23:37:57.807Z,7.60
2023-05-19T23:57:59.546Z,14.35
